Time;durP1;ratioP1;P1;durP2;ratioP2;P2;SDS_P1;SDS_P2;PMS_P1;PMS_P2;Temp;Humidity;BMP_temperature;BMP_pressure;BME280_temperature;BME280_humidity;BME280_pressure;Samples;Min_cycle;Max_cycle;Signal;HPM_P1;HPM_P2
2022/01/08 00:01:38;;;;;;;19.00;9.18;;;;;;;-2.65;63.18;100284.28;4430024;32;33780;-61
2022/01/08 00:04:06;;;;;;;23.23;9.20;;;;;;;-2.97;64.53;100288.53;4449607;32;34242;-61
2022/01/08 00:06:34;;;;;;;17.70;9.73;;;;;;;-2.86;65.07;100282.03;4442576;32;33411;-61
2022/01/08 00:09:02;;;;;;;21.83;8.90;;;;;;;-2.20;63.38;100274.56;4446553;32;34598;-62
2022/01/08 00:11:30;;;;;;;18.80;9.93;;;;;;;-1.77;61.49;100274.56;4444740;32;34058;-61
2022/01/08 00:13:57;;;;;;;22.10;10.13;;;;;;;-2.08;62.60;100266.41;4447838;32;33828;-61
2022/01/08 00:16:25;;;;;;;16.05;7.97;;;;;;;-0.98;59.62;100265.44;4448712;32;33249;-61
2022/01/08 00:18:53;;;;;;;21.75;9.23;;;;;;;-0.92;59.38;100269.44;4448056;32;33970;-61
2022/01/08 00:21:21;;;;;;;17.05;8.30;;;;;;;-0.98;59.87;100273.06;4428369;32;33630;-62
2022/01/08 00:23:48;;;;;;;17.33;8.77;;;;;;;-0.37;58.26;100271.31;4440732;32;33914;-61
2022/01/08 00:26:16;;;;;;;20.33;8.57;;;;;;;0.12;56.03;100263.22;4442300;32;33124;-62
2022/01/08 00:28:43;;;;;;;16.23;6.72;;;;;;;0.01;55.71;100265.50;4446232;32;34478;-61
2022/01/08 00:31:11;;;;;;;19.48;6.93;;;;;;;0.04;55.03;100266.69;4431787;32;32728;-61
2022/01/08 00:33:40;;;;;;;16.30;7.10;;;;;;;0.09;54.96;100270.53;4447023;32;33741;-61
2022/01/08 00:36:09;;;;;;;13.30;7.22;;;;;;;-0.04;55.53;100257.41;4436593;32;33467;-61
2022/01/08 00:38:36;;;;;;;17.20;8.50;;;;;;;-1.32;59.20;100259.56;4445830;32;34383;-62
2022/01/08 00:41:04;;;;;;;18.37;7.40;;;;;;;-2.58;62.92;100256.28;4446261;32;33468;-61
2022/01/08 00:43:32;;;;;;;17.05;8.50;;;;;;;-2.29;62.65;100250.75;4453140;32;33837;-61
2022/01/08 00:46:00;;;;;;;18.42;8.25;;;;;;;-2.39;62.68;100248.03;4450474;32;34252;-61
2022/01/08 00:48:28;;;;;;;15.77;8.30;;;;;;;-2.77;63.44;100252.56;4450711;32;34635;-61
2022/01/08 00:50:56;;;;;;;17.87;9.40;;;;;;;-3.12;64.89;100236.22;4441642;32;34408;-61
2022/01/08 00:53:25;;;;;;;16.95;8.05;;;;;;;-2.98;64.61;100241.09;4444952;32;34617;-60
2022/01/08 00:55:53;;;;;;;17.52;8.18;;;;;;;-3.32;66.84;100240.09;4449637;32;33857;-60
2022/01/08 00:58:22;;;;;;;21.73;9.48;;;;;;;-2.43;64.34;100230.72;4445216;32;33951;-61
2022/01/08 01:00:49;;;;;;;21.12;9.63;;;;;;;-1.67;61.72;100226.50;4448825;32;33761;-61
2022/01/08 01:03:17;;;;;;;20.67;10.30;;;;;;;-1.40;61.13;100234.28;4431875;32;32283;-61
2022/01/08 01:05:45;;;;;;;25.00;10.85;;;;;;;-1.16;60.50;100234.88;4435482;32;34370;-61
2022/01/08 01:08:13;;;;;;;27.10;11.18;;;;;;;-1.41;60.56;100221.44;4439824;32;34030;-61
2022/01/08 01:10:41;;;;;;;25.30;11.07;;;;;;;-1.48;61.08;100214.84;4435001;32;32370;-61
2022/01/08 01:13:08;;;;;;;21.80;10.55;;;;;;;-1.45;60.39;100206.63;4425314;32;34077;-60
2022/01/08 01:15:35;;;;;;;16.23;8.90;;;;;;;-0.94;59.12;100194.66;4432258;32;33993;-61
2022/01/08 01:18:04;;;;;;;16.87;8.80;;;;;;;-0.64;58.15;100183.97;4426130;32;33915;-62
2022/01/08 01:20:31;;;;;;;16.20;8.23;;;;;;;-0.61;57.85;100196.09;4434496;32;34659;-61
2022/01/08 01:23:09;;;;;;;18.50;8.52;;;;;;;-0.47;57.32;100193.19;4431893;32;36172;-62
2022/01/08 01:25:47;;;;;;;17.37;8.13;;;;;;;-0.30;56.66;100198.97;4434275;32;33896;-61
2022/01/08 01:41:55;;;;;;;24.45;9.20;;;;;;;-1.80;60.58;100183.72;4430480;32;33791;-62
2022/01/08 01:47:10;;;;;;;18.77;9.20;;;;;;;-2.11;61.78;100182.31;4429807;32;34445;-61
2022/01/08 01:49:41;;;;;;;17.75;8.55;;;;;;;-2.09;61.67;100168.12;4424341;32;33463;-62
2022/01/08 01:52:11;;;;;;;19.75;9.80;;;;;;;-1.94;61.67;100176.37;4434485;32;33034;-61
2022/01/08 01:54:40;;;;;;;22.67;9.10;;;;;;;-1.92;61.99;100173.25;4433368;32;34237;-61
2022/01/08 01:57:12;;;;;;;19.87;10.48;;;;;;;-1.64;61.24;100163.31;4430462;32;32895;-62
2022/01/08 01:59:40;;;;;;;19.67;9.77;;;;;;;-1.74;61.18;100169.09;4443838;32;33780;-61
2022/01/08 02:02:09;;;;;;;17.65;8.95;;;;;;;-1.82;61.58;100165.78;4422115;32;33875;-62
2022/01/08 02:04:37;;;;;;;19.00;8.43;;;;;;;-1.30;60.15;100164.03;4424060;32;34012;-62
2022/01/08 02:07:07;;;;;;;16.85;7.95;;;;;;;-0.39;56.92;100155.72;4429380;32;34064;-62
2022/01/08 02:09:37;;;;;;;17.25;7.70;;;;;;;0.00;55.72;100160.19;4447617;32;33814;-62
2022/01/08 02:12:17;;;;;;;22.83;8.20;;;;;;;0.04;55.01;100156.25;4436418;32;33577;-62
2022/01/08 02:14:45;;;;;;;19.45;7.53;;;;;;;-0.21;55.23;100146.38;4448907;32;35401;-61
2022/01/08 02:17:13;;;;;;;16.40;7.85;;;;;;;-0.42;55.57;100145.28;4439860;32;34378;-62
2022/01/08 02:19:41;;;;;;;19.92;9.43;;;;;;;-2.70;61.72;100153.59;4448852;32;33785;-62
2022/01/08 02:22:15;;;;;;;21.10;9.20;;;;;;;-3.50;66.51;100155.44;4453730;32;34682;-61
2022/01/08 02:24:45;;;;;;;21.12;8.90;;;;;;;-3.52;67.34;100161.97;4439554;32;33734;-62
2022/01/08 02:27:16;;;;;;;23.55;9.30;;;;;;;-3.32;66.78;100150.50;4448423;32;32787;-61
2022/01/08 02:29:44;;;;;;;18.05;8.10;;;;;;;-3.31;66.38;100143.06;4444957;32;33607;-61
2022/01/08 02:32:15;;;;;;;19.52;8.77;;;;;;;-3.74;67.84;100142.75;4441171;32;34600;-61
2022/01/08 02:34:44;;;;;;;22.05;9.68;;;;;;;-4.01;69.41;100142.50;4447810;32;34752;-62
2022/01/08 02:37:15;;;;;;;21.25;10.43;;;;;;;-3.88;69.16;100144.72;4447167;32;34341;-61
2022/01/08 02:39:43;;;;;;;24.40;10.40;;;;;;;-4.19;70.02;100141.44;4446680;32;34019;-62
2022/01/08 02:42:14;;;;;;;23.85;11.15;;;;;;;-4.37;70.93;100147.91;4447856;32;33649;-61
2022/01/08 02:44:42;;;;;;;24.45;11.23;;;;;;;-4.37;71.23;100145.37;4434564;32;33885;-62
2022/01/08 02:47:14;;;;;;;28.08;12.63;;;;;;;-4.05;70.14;100140.38;4449968;32;33564;-62
2022/01/08 02:49:43;;;;;;;27.05;10.95;;;;;;;-3.94;69.31;100139.00;4435975;32;32006;-62
2022/01/08 02:52:10;;;;;;;27.02;11.18;;;;;;;-3.66;68.27;100149.50;4446169;32;34732;-61
2022/01/08 02:54:38;;;;;;;27.73;12.18;;;;;;;-3.65;67.53;100144.63;4441065;32;33878;-62
2022/01/08 02:57:07;;;;;;;24.67;11.07;;;;;;;-4.10;69.62;100135.53;4426425;32;33283;-62
2022/01/08 02:59:35;;;;;;;25.05;10.02;;;;;;;-4.39;70.33;100135.84;4443678;32;34444;-62
2022/01/08 03:02:03;;;;;;;25.67;11.27;;;;;;;-3.62;67.67;100133.91;4429386;32;34743;-62
2022/01/08 03:04:31;;;;;;;24.45;10.63;;;;;;;-2.75;65.04;100131.03;4427319;32;32833;-62
2022/01/08 03:06:58;;;;;;;24.92;11.38;;;;;;;-3.33;66.00;100133.53;4434637;32;33282;-62
2022/01/08 03:09:27;;;;;;;24.33;10.93;;;;;;;-3.72;66.93;100139.63;4433697;32;34852;-62
2022/01/08 03:11:55;;;;;;;27.00;10.77;;;;;;;-3.93;67.97;100135.72;4452136;32;33918;-63
2022/01/08 03:14:22;;;;;;;24.90;10.45;;;;;;;-3.15;65.96;100127.81;4450514;32;34440;-63
2022/01/08 03:16:50;;;;;;;18.95;9.85;;;;;;;-2.46;63.23;100123.84;4447204;32;33266;-62
2022/01/08 03:19:18;;;;;;;18.95;9.20;;;;;;;-1.70;60.12;100134.75;4447163;32;34453;-63
2022/01/08 03:21:52;;;;;;;19.55;8.35;;;;;;;-2.59;61.71;100132.75;4452634;32;33889;-62
2022/01/08 03:24:28;;;;;;;17.08;8.32;;;;;;;-3.74;65.67;100143.62;4424504;32;34711;-62
2022/01/08 03:26:56;;;;;;;17.15;8.38;;;;;;;-3.68;66.90;100138.31;4426068;32;33751;-62
2022/01/08 03:29:25;;;;;;;20.90;8.30;;;;;;;-4.31;67.42;100135.03;4447780;32;33634;-62
2022/01/08 03:31:53;;;;;;;18.62;8.10;;;;;;;-4.54;68.91;100135.06;4444460;32;34470;-62
2022/01/08 03:34:20;;;;;;;20.67;9.70;;;;;;;-4.08;67.65;100134.97;4439777;32;33661;-62
2022/01/08 03:36:48;;;;;;;18.92;7.82;;;;;;;-4.09;67.88;100147.47;4445287;32;35175;-62
2022/01/08 03:39:18;;;;;;;21.45;9.13;;;;;;;-3.87;67.32;100145.59;4430450;32;33615;-63
2022/01/08 03:41:46;;;;;;;24.65;10.70;;;;;;;-4.04;67.37;100143.78;4446363;32;33242;-62
2022/01/08 03:44:15;;;;;;;38.95;18.23;;;;;;;-4.27;68.08;100152.34;4449382;32;34024;-62
2022/01/08 03:46:42;;;;;;;27.05;13.07;;;;;;;-4.39;68.71;100153.53;4442253;32;33472;-62
2022/01/08 03:49:12;;;;;;;26.62;13.85;;;;;;;-4.38;69.02;100153.72;4442354;32;33635;-62
2022/01/08 03:51:40;;;;;;;25.88;11.32;;;;;;;-4.26;68.33;100164.25;4429532;32;34514;-62
2022/01/08 03:54:08;;;;;;;27.70;12.27;;;;;;;-4.04;67.62;100158.97;4420198;32;33563;-62
2022/01/08 03:56:36;;;;;;;22.87;11.48;;;;;;;-3.96;66.47;100150.56;4449641;32;34139;-61
2022/01/08 03:59:03;;;;;;;25.73;11.43;;;;;;;-3.86;66.25;100148.31;4448150;32;33887;-62
2022/01/08 04:01:31;;;;;;;23.50;11.70;;;;;;;-3.50;64.59;100146.97;4431287;32;33790;-63
2022/01/08 04:03:59;;;;;;;29.58;14.00;;;;;;;-3.50;63.83;100145.31;4444935;32;33953;-63
2022/01/08 04:06:27;;;;;;;30.77;15.02;;;;;;;-4.00;65.27;100150.97;4444117;32;33501;-62
2022/01/08 04:08:58;;;;;;;22.52;10.90;;;;;;;-4.00;65.55;100141.78;4447514;32;34949;-61
2022/01/08 04:11:26;;;;;;;27.52;11.40;;;;;;;-4.22;66.18;100140.19;4449662;32;32466;-62
2022/01/08 04:13:55;;;;;;;23.80;9.82;;;;;;;-3.98;66.10;100131.78;4448189;32;34112;-62
2022/01/08 04:16:33;;;;;;;21.65;8.90;;;;;;;-4.12;66.14;100131.97;4444158;32;34344;-62
2022/01/08 04:19:01;;;;;;;18.10;8.80;;;;;;;-4.32;66.71;100123.13;4439834;32;34581;-62
2022/01/08 04:24:05;;;;;;;21.27;9.65;;;;;;;-4.73;68.27;100111.97;4450000;32;34969;-62
2022/01/08 04:26:33;;;;;;;18.23;9.30;;;;;;;-4.86;69.25;100113.88;4447394;32;33750;-62
2022/01/08 04:29:01;;;;;;;22.50;10.52;;;;;;;-4.82;69.14;100110.94;4432707;32;34384;-62
2022/01/08 04:31:28;;;;;;;23.98;10.80;;;;;;;-4.85;69.26;100110.59;4443019;32;33609;-62
2022/01/08 04:33:56;;;;;;;24.20;10.77;;;;;;;-4.71;69.24;100117.16;4444865;32;33816;-63
2022/01/08 04:36:23;;;;;;;28.55;11.52;;;;;;;-4.11;67.53;100114.41;4435273;32;31835;-62
2022/01/08 04:38:51;;;;;;;25.45;11.05;;;;;;;-4.01;66.97;100108.72;4447164;32;33606;-62
2022/01/08 04:41:19;;;;;;;24.08;11.38;;;;;;;-4.33;67.58;100095.13;4446935;32;34776;-62
2022/01/08 04:43:47;;;;;;;21.37;10.50;;;;;;;-3.74;66.52;100092.13;4445937;32;34024;-62
2022/01/08 04:46:14;;;;;;;18.73;9.50;;;;;;;-2.97;63.99;100086.66;4432493;32;33479;-62
2022/01/08 04:48:43;;;;;;;23.65;9.68;;;;;;;-2.77;62.90;100090.31;4447592;32;34619;-63
2022/01/08 04:51:10;;;;;;;21.30;8.95;;;;;;;-3.20;62.58;100085.94;4434775;32;34583;-62
2022/01/08 04:53:38;;;;;;;22.15;10.00;;;;;;;-3.60;63.84;100089.38;4448124;32;33933;-61
2022/01/08 04:56:06;;;;;;;18.92;9.25;;;;;;;-3.88;64.71;100093.16;4449168;32;33582;-63
2022/01/08 04:58:33;;;;;;;17.75;8.32;;;;;;;-4.02;65.20;100089.19;4441259;32;33746;-63
2022/01/08 05:01:01;;;;;;;15.48;7.37;;;;;;;-4.02;64.99;100084.13;4446956;32;34116;-62
2022/01/08 05:03:29;;;;;;;17.60;7.53;;;;;;;-3.98;64.29;100081.19;4439201;32;34087;-62
2022/01/08 05:05:56;;;;;;;13.68;6.50;;;;;;;-3.75;63.54;100076.00;4447468;32;34386;-62
2022/01/08 05:08:24;;;;;;;17.12;7.40;;;;;;;-4.02;64.43;100085.03;4446633;32;34626;-62
2022/01/08 05:10:51;;;;;;;19.30;9.18;;;;;;;-3.88;63.97;100071.31;4445693;32;32349;-62
2022/01/08 05:13:19;;;;;;;19.60;9.35;;;;;;;-3.63;63.97;100077.31;4444408;32;33886;-62
2022/01/08 05:15:46;;;;;;;19.05;8.50;;;;;;;-4.21;64.95;100081.25;4448814;32;33207;-62
2022/01/08 05:18:14;;;;;;;20.02;8.50;;;;;;;-4.39;66.24;100092.84;4449590;32;33947;-62
2022/01/08 05:20:46;;;;;;;14.52;7.07;;;;;;;-4.40;65.40;100084.37;4452741;32;34574;-62
2022/01/08 05:23:13;;;;;;;14.60;6.85;;;;;;;-4.29;65.08;100075.38;4450574;32;34457;-63
2022/01/08 05:25:41;;;;;;;13.52;7.32;;;;;;;-4.21;64.91;100079.66;4443895;32;33429;-61
2022/01/08 05:28:08;;;;;;;16.12;7.47;;;;;;;-4.28;65.28;100087.31;4426816;32;33545;-61
2022/01/08 05:30:36;;;;;;;15.98;7.22;;;;;;;-4.65;66.95;100090.94;4450400;32;32392;-62
2022/01/08 05:33:03;;;;;;;14.73;6.28;;;;;;;-3.96;65.32;100094.87;4438035;32;32260;-62
2022/01/08 05:35:32;;;;;;;13.27;6.25;;;;;;;-3.88;64.58;100088.09;4450494;32;33823;-62
2022/01/08 05:37:59;;;;;;;17.60;8.20;;;;;;;-3.16;62.32;100078.78;4450878;32;33921;-62
2022/01/08 05:40:27;;;;;;;16.95;8.18;;;;;;;-2.68;61.04;100081.09;4449552;32;33661;-63
2022/01/08 05:42:54;;;;;;;18.42;8.57;;;;;;;-2.37;60.31;100084.19;4450754;32;34072;-63
2022/01/08 05:45:22;;;;;;;14.13;7.18;;;;;;;-2.18;59.90;100087.81;4451777;32;33574;-63
2022/01/08 05:47:50;;;;;;;16.30;6.07;;;;;;;-2.04;59.32;100083.19;4443501;32;34001;-62
2022/01/08 05:50:18;;;;;;;12.37;5.93;;;;;;;-1.44;56.21;100076.31;4434411;32;34427;-62
2022/01/08 05:52:48;;;;;;;15.32;7.12;;;;;;;-1.94;56.11;100080.81;4448524;32;33845;-62
2022/01/08 05:55:16;;;;;;;16.48;7.43;;;;;;;-4.37;63.82;100077.09;4431278;32;32333;-62
2022/01/08 05:57:44;;;;;;;12.52;7.72;;;;;;;-4.77;65.90;100095.56;4453065;32;33997;-62
2022/01/08 06:00:11;;;;;;;17.87;8.80;;;;;;;-4.39;65.25;100097.91;4441814;32;33941;-62
2022/01/08 06:02:39;;;;;;;17.23;6.78;;;;;;;-4.52;65.57;100104.87;4443691;32;34458;-62
2022/01/08 06:05:08;;;;;;;14.57;6.47;;;;;;;-4.39;65.23;100108.00;4447863;32;33372;-62
2022/01/08 06:07:36;;;;;;;16.20;7.68;;;;;;;-5.31;68.81;100115.59;4448499;32;33607;-62
2022/01/08 06:10:05;;;;;;;21.27;9.75;;;;;;;-5.05;68.64;100121.94;4452593;32;33957;-62
2022/01/08 06:12:32;;;;;;;21.35;9.95;;;;;;;-5.44;69.64;100124.34;4436537;32;32635;-62
2022/01/08 06:15:00;;;;;;;22.83;9.25;;;;;;;-5.18;68.77;100118.78;4451769;32;33202;-61
2022/01/08 06:17:28;;;;;;;15.65;8.20;;;;;;;-5.11;68.18;100131.38;4452654;32;33810;-62
2022/01/08 06:19:56;;;;;;;18.48;9.93;;;;;;;-5.31;69.17;100145.91;4449427;32;33686;-62
2022/01/08 06:22:23;;;;;;;17.70;8.02;;;;;;;-5.29;69.11;100141.94;4448221;32;33884;-62
2022/01/08 06:24:51;;;;;;;14.82;6.47;;;;;;;-5.10;68.62;100135.66;4448954;32;33295;-62
2022/01/08 06:27:19;;;;;;;25.20;9.18;;;;;;;-5.10;68.61;100133.13;4428589;32;34361;-62
2022/01/08 06:29:46;;;;;;;24.80;8.82;;;;;;;-5.05;68.84;100133.66;4425657;32;32182;-63
2022/01/08 06:32:14;;;;;;;17.40;8.55;;;;;;;-5.06;68.59;100129.34;4449636;32;36265;-62
2022/01/08 06:34:42;;;;;;;20.33;8.70;;;;;;;-5.21;69.04;100133.59;4432509;32;34255;-62
2022/01/08 06:37:11;;;;;;;19.05;9.73;;;;;;;-5.11;69.09;100126.31;4450794;32;33809;-61
2022/01/08 06:39:38;;;;;;;20.52;9.15;;;;;;;-4.92;68.36;100118.25;4445441;32;34769;-62
2022/01/08 06:42:06;;;;;;;23.33;10.20;;;;;;;-4.82;67.84;100121.06;4450266;32;32494;-63
2022/01/08 06:44:33;;;;;;;17.42;9.38;;;;;;;-4.89;67.99;100128.69;4447184;32;34415;-62
2022/01/08 06:47:02;;;;;;;24.20;9.93;;;;;;;-5.29;69.40;100124.25;4450981;32;33948;-62
2022/01/08 06:49:30;;;;;;;25.30;11.18;;;;;;;-5.51;70.61;100121.84;4447285;32;33538;-62
2022/01/08 06:51:58;;;;;;;22.10;10.32;;;;;;;-5.38;70.42;100125.03;4447894;32;34468;-62
2022/01/08 06:54:26;;;;;;;20.40;10.20;;;;;;;-4.95;69.14;100129.78;4434434;32;34595;-62
2022/01/08 06:56:53;;;;;;;27.02;10.00;;;;;;;-4.82;68.21;100116.00;4435476;32;32465;-62
2022/01/08 06:59:21;;;;;;;28.65;12.57;;;;;;;-5.09;68.71;100111.34;4438805;32;32320;-63
2022/01/08 07:01:49;;;;;;;27.13;11.65;;;;;;;-4.10;65.53;100121.25;4449618;32;33664;-62
2022/01/08 07:04:16;;;;;;;19.55;8.63;;;;;;;-5.11;68.55;100118.75;4443506;32;33366;-63
2022/01/08 07:06:44;;;;;;;15.20;7.82;;;;;;;-5.38;69.53;100114.94;4443322;32;33639;-62
2022/01/08 07:09:11;;;;;;;16.62;7.90;;;;;;;-5.23;68.91;100113.22;4428732;32;33719;-63
2022/01/08 07:11:39;;;;;;;19.95;8.68;;;;;;;-5.29;69.54;100099.00;4427366;32;33726;-62
2022/01/08 07:14:07;;;;;;;19.25;7.93;;;;;;;-5.14;69.59;100106.69;4434198;32;34121;-61
2022/01/08 07:16:35;;;;;;;25.00;7.28;;;;;;;-4.86;68.25;100088.59;4430900;32;33802;-63
2022/01/08 07:19:02;;;;;;;15.05;8.00;;;;;;;-4.80;68.29;100086.75;4430168;32;33919;-63
2022/01/08 07:21:30;;;;;;;14.95;7.35;;;;;;;-4.44;66.84;100093.97;4430799;32;33872;-62
2022/01/08 07:23:58;;;;;;;16.90;8.27;;;;;;;-4.58;66.78;100088.34;4424647;32;33121;-63
2022/01/08 07:26:26;;;;;;;18.58;8.55;;;;;;;-4.45;66.71;100092.19;4427056;32;34033;-62
2022/01/08 07:28:53;;;;;;;22.80;8.27;;;;;;;-4.64;67.48;100090.19;4426658;32;33238;-62
2022/01/08 07:31:22;;;;;;;21.33;10.70;;;;;;;-4.41;66.52;100089.25;4428535;32;35592;-62
2022/01/08 07:33:50;;;;;;;18.05;8.07;;;;;;;-4.70;68.00;100087.00;4429225;32;33704;-62
2022/01/08 07:36:17;;;;;;;16.65;7.80;;;;;;;-4.89;69.38;100090.78;4431664;32;34313;-62
2022/01/08 07:38:49;;;;;;;16.85;6.78;;;;;;;-4.86;69.30;100093.66;4425212;32;34839;-62
2022/01/08 07:41:17;;;;;;;12.02;6.50;;;;;;;-4.77;68.96;100089.59;4432944;32;33632;-63
2022/01/08 07:43:44;;;;;;;19.02;8.05;;;;;;;-4.62;67.99;100088.72;4428342;32;33297;-62
2022/01/08 07:46:12;;;;;;;18.15;7.85;;;;;;;-4.50;68.01;100093.31;4429173;32;34403;-63
2022/01/08 07:48:41;;;;;;;17.58;8.30;;;;;;;-4.39;67.37;100100.44;4432594;32;33881;-63
2022/01/08 07:51:08;;;;;;;25.12;11.60;;;;;;;-4.24;66.68;100091.97;4433888;32;34079;-63
2022/01/08 07:53:36;;;;;;;27.05;11.82;;;;;;;-4.08;66.94;100078.41;4433636;32;33222;-63
2022/01/08 07:56:04;;;;;;;33.25;13.45;;;;;;;-3.74;65.81;100074.41;4428230;32;34398;-63
2022/01/08 07:58:32;;;;;;;30.35;13.45;;;;;;;-2.77;63.16;100064.97;4433752;32;35532;-62
2022/01/08 08:01:00;;;;;;;20.48;9.82;;;;;;;-1.83;60.04;100064.97;4426021;32;34294;-63
2022/01/08 08:03:28;;;;;;;20.27;8.82;;;;;;;-1.76;59.06;100063.03;4430015;32;31724;-63
2022/01/08 08:05:56;;;;;;;14.65;7.80;;;;;;;-1.65;58.12;100052.28;4427470;32;33851;-63
2022/01/08 08:08:24;;;;;;;21.10;10.35;;;;;;;-1.63;57.94;100058.41;4438335;32;33894;-63
2022/01/08 08:10:51;;;;;;;23.15;11.15;;;;;;;-2.30;60.06;100061.22;4445179;32;34014;-63
2022/01/08 08:13:21;;;;;;;22.73;11.65;;;;;;;-2.52;61.81;100063.25;4443841;32;34263;-63
2022/01/08 08:15:49;;;;;;;19.60;10.82;;;;;;;-2.17;60.82;100063.31;4448498;32;34040;-63
2022/01/08 08:18:17;;;;;;;23.73;11.52;;;;;;;-1.72;60.01;100044.81;4443569;32;32775;-63
2022/01/08 08:20:45;;;;;;;24.90;13.50;;;;;;;-1.19;58.59;100041.44;4418761;32;34662;-63
2022/01/08 08:23:13;;;;;;;33.08;16.87;;;;;;;-0.87;57.67;100029.19;4438703;32;33741;-62
2022/01/08 08:25:41;;;;;;;26.23;12.20;;;;;;;-0.20;55.17;100024.28;4433090;32;33904;-61
2022/01/08 08:28:09;;;;;;;51.53;27.80;;;;;;;-0.08;54.63;100026.16;4445541;32;33826;-61
2022/01/08 08:30:37;;;;;;;38.92;19.65;;;;;;;-0.27;54.97;100029.59;4446761;32;33634;-62
2022/01/08 08:33:05;;;;;;;27.37;14.07;;;;;;;-0.20;55.21;100031.94;4429246;32;34070;-61
2022/01/08 08:35:41;;;;;;;26.58;14.10;;;;;;;0.11;54.66;100021.06;4443443;32;34765;-61
2022/01/08 08:38:10;;;;;;;21.90;11.18;;;;;;;0.10;54.66;100011.66;4433388;32;33319;-62
2022/01/08 08:40:40;;;;;;;26.90;13.68;;;;;;;-0.81;56.62;100016.16;4425070;32;33381;-62
2022/01/08 08:43:08;;;;;;;21.87;14.05;;;;;;;-1.39;58.89;100007.41;4447657;32;33288;-62
2022/01/08 08:45:36;;;;;;;22.92;11.30;;;;;;;-1.06;58.47;100011.31;4433437;32;33498;-62
2022/01/08 08:48:04;;;;;;;21.17;11.32;;;;;;;-1.36;59.27;100013.53;4446233;32;33809;-62
2022/01/08 08:50:31;;;;;;;25.62;12.93;;;;;;;-1.23;59.54;100016.47;4442287;32;34087;-62
2022/01/08 08:52:59;;;;;;;25.02;13.02;;;;;;;-1.00;59.91;100019.53;4437594;32;33527;-63
2022/01/08 08:55:27;;;;;;;26.05;13.85;;;;;;;-1.33;60.19;100018.88;4430251;32;32397;-62
2022/01/08 08:57:55;;;;;;;29.17;14.75;;;;;;;-1.34;61.03;100034.88;4450932;32;34752;-63
2022/01/08 09:00:22;;;;;;;29.63;14.05;;;;;;;-1.13;61.07;100036.91;4450330;32;32019;-63
2022/01/08 09:02:55;;;;;;;36.95;20.12;;;;;;;-0.45;59.30;100035.56;4431320;32;32928;-62
2022/01/08 09:05:23;;;;;;;36.97;16.73;;;;;;;0.32;56.39;100024.63;4447346;32;34362;-62
2022/01/08 09:07:51;;;;;;;28.48;14.65;;;;;;;0.73;53.95;100024.81;4450319;32;34835;-61
2022/01/08 09:10:25;;;;;;;26.90;11.25;;;;;;;0.66;54.11;100015.75;4432123;32;33910;-62
2022/01/08 09:12:54;;;;;;;18.40;9.32;;;;;;;0.43;54.39;100008.66;4431981;32;33206;-62
2022/01/08 09:15:24;;;;;;;21.70;10.35;;;;;;;0.83;52.88;100014.66;4449354;32;34560;-62
2022/01/08 09:17:57;;;;;;;18.45;9.43;;;;;;;0.14;54.55;100003.53;4443606;32;32872;-62
2022/01/08 09:20:27;;;;;;;19.55;9.68;;;;;;;0.37;54.50;100008.09;4441493;32;33856;-62
2022/01/08 09:22:56;;;;;;;18.35;8.20;;;;;;;-0.18;55.88;100009.16;4446673;32;34027;-62
2022/01/08 09:25:23;;;;;;;31.62;15.50;;;;;;;-0.30;56.91;100006.41;4430549;32;33584;-63
2022/01/08 09:27:51;;;;;;;44.40;21.75;;;;;;;-0.64;57.82;100010.97;4439796;32;34686;-63
2022/01/08 09:30:18;;;;;;;19.87;11.60;;;;;;;-0.03;56.81;100004.56;4451241;32;34147;-62
2022/01/08 09:32:46;;;;;;;30.15;12.88;;;;;;;0.93;53.98;99991.75;4445287;32;34173;-62
2022/01/08 09:35:15;;;;;;;23.52;12.35;;;;;;;1.02;53.82;99991.59;4448977;32;34603;-62
2022/01/08 09:37:44;;;;;;;21.65;11.80;;;;;;;0.98;54.02;99987.00;4432431;32;33743;-62
2022/01/08 09:40:16;;;;;;;21.10;9.50;;;;;;;0.98;54.37;99981.91;4419824;32;33552;-63
2022/01/08 09:42:44;;;;;;;19.80;9.20;;;;;;;1.06;54.15;99982.56;4435888;32;33107;-63
2022/01/08 09:45:12;;;;;;;21.73;10.10;;;;;;;0.91;54.21;99975.41;4446825;32;34587;-63
2022/01/08 09:47:39;;;;;;;18.37;9.90;;;;;;;0.55;55.41;99979.13;4431625;32;33945;-63
2022/01/08 09:50:09;;;;;;;23.12;11.48;;;;;;;0.90;54.65;99973.59;4426242;32;32925;-62
2022/01/08 09:52:37;;;;;;;27.77;15.02;;;;;;;0.57;55.34;99967.41;4441377;32;34304;-62
2022/01/08 09:55:06;;;;;;;28.65;14.30;;;;;;;-0.18;57.31;99973.53;4447186;32;34432;-63
2022/01/08 09:57:33;;;;;;;30.05;17.05;;;;;;;0.26;56.49;99976.56;4438789;32;34381;-63
2022/01/08 10:00:09;;;;;;;25.08;14.95;;;;;;;0.43;56.54;99977.19;4437754;32;34565;-63
2022/01/08 10:02:37;;;;;;;26.15;13.95;;;;;;;1.19;54.65;99977.75;4439450;32;32282;-62
2022/01/08 10:05:10;;;;;;;34.75;16.40;;;;;;;1.49;54.00;99968.34;4448825;32;34475;-63
2022/01/08 10:07:38;;;;;;;34.47;16.50;;;;;;;0.10;57.44;99966.69;4435565;32;34711;-63
2022/01/08 10:10:17;;;;;;;40.50;19.25;;;;;;;1.10;55.47;99966.75;4441239;32;34017;-62
2022/01/08 10:12:53;;;;;;;40.00;19.17;;;;;;;0.81;56.12;99959.19;4437475;32;33552;-62
2022/01/08 10:18:11;;;;;;;32.85;15.95;;;;;;;1.73;53.48;99944.78;4438343;32;34730;-62
2022/01/08 10:20:40;;;;;;;25.30;12.05;;;;;;;1.25;54.56;99932.31;4423706;32;32008;-63
2022/01/08 10:23:12;;;;;;;26.12;12.85;;;;;;;1.97;53.05;99942.47;4437723;32;34368;-62
2022/01/08 10:25:41;;;;;;;27.83;13.50;;;;;;;1.61;53.36;99928.47;4420531;32;33243;-63
2022/01/08 10:28:09;;;;;;;23.05;11.98;;;;;;;1.62;53.87;99927.69;4424959;32;34668;-62
2022/01/08 10:30:37;;;;;;;24.77;12.98;;;;;;;1.49;53.54;99932.59;4446827;32;34575;-63
2022/01/08 10:33:05;;;;;;;23.58;12.48;;;;;;;1.77;52.17;99928.94;4429647;32;33817;-62
2022/01/08 10:35:52;;;;;;;20.92;10.85;;;;;;;1.74;51.56;99936.38;4441790;32;33467;-63
2022/01/08 10:38:19;;;;;;;27.77;14.85;;;;;;;1.20;53.71;99943.81;4446860;32;33660;-62
2022/01/08 10:40:47;;;;;;;31.98;15.48;;;;;;;-0.44;58.42;99945.75;4450151;32;33780;-64
2022/01/08 10:43:26;;;;;;;27.50;14.23;;;;;;;-0.42;59.11;99941.69;4431577;32;33508;-63
2022/01/08 10:45:56;;;;;;;36.63;19.77;;;;;;;0.82;56.38;99938.91;4446456;32;34669;-62
2022/01/08 10:48:33;;;;;;;32.35;18.15;;;;;;;0.31;58.17;99947.31;4453662;32;33874;-63
2022/01/08 10:51:33;;;;;;;25.85;13.88;;;;;;;0.88;55.97;99946.19;4434316;32;33936;-62
2022/01/08 10:54:04;;;;;;;27.65;12.48;;;;;;;1.69;53.96;99936.78;4449768;32;34474;-63
2022/01/08 10:56:38;;;;;;;24.75;12.77;;;;;;;0.96;55.78;99948.63;4449982;32;32930;-63
2022/01/08 10:59:09;;;;;;;28.10;11.88;;;;;;;0.93;56.37;99940.72;4444960;32;33527;-62
2022/01/08 11:01:40;;;;;;;24.67;12.43;;;;;;;1.22;54.86;99942.28;4443138;32;33594;-60
2022/01/08 11:04:11;;;;;;;32.97;13.43;;;;;;;0.52;57.16;99948.28;4443551;32;33229;-59
2022/01/08 11:06:49;;;;;;;30.00;13.40;;;;;;;1.28;54.96;99947.91;4445950;32;34622;-62
2022/01/08 11:09:17;;;;;;;26.58;12.30;;;;;;;1.57;54.35;99940.09;4450104;32;34128;-62
2022/01/08 11:11:50;;;;;;;23.23;12.55;;;;;;;1.91;53.51;99929.19;4451477;32;33835;-62
2022/01/08 11:17:38;;;;;;;30.33;12.68;;;;;;;0.49;56.06;99936.94;4433483;32;34578;-61
2022/01/08 11:20:15;;;;;;;28.30;14.15;;;;;;;0.91;56.89;99937.16;4425837;32;33401;-61
2022/01/08 11:22:47;;;;;;;29.45;13.48;;;;;;;1.36;55.05;99929.00;4442253;32;33786;-61
2022/01/08 11:25:23;;;;;;;21.25;10.38;;;;;;;1.80;53.46;99919.75;4446777;32;34299;-62
2022/01/08 11:28:05;;;;;;;43.85;16.02;;;;;;;1.54;54.37;99916.84;4449085;32;33746;-62
2022/01/08 11:30:36;;;;;;;225.57;64.07;;;;;;;0.13;58.37;99933.84;4427828;32;33932;-62
2022/01/08 11:33:14;;;;;;;51.13;21.65;;;;;;;0.27;58.80;99929.06;4441370;32;32879;-62
2022/01/08 11:35:44;;;;;;;253.18;65.68;;;;;;;0.32;58.44;99938.88;4434563;32;33279;-62
2022/01/08 11:38:15;;;;;;;764.78;232.52;;;;;;;0.10;58.96;99925.94;4425427;32;33703;-62
2022/01/08 11:40:45;;;;;;;282.65;79.05;;;;;;;0.31;58.24;99928.56;4427276;32;33843;-61
2022/01/08 11:43:16;;;;;;;50.30;24.33;;;;;;;0.63;56.76;99922.81;4440001;32;33949;-61
2022/01/08 11:45:47;;;;;;;43.35;19.50;;;;;;;0.45;57.58;99924.69;4446121;32;33632;-61
2022/01/08 11:48:17;;;;;;;19.42;10.00;;;;;;;0.97;56.38;99926.59;4439157;32;33669;-61
2022/01/08 11:50:57;;;;;;;21.80;11.20;;;;;;;0.67;56.51;99924.84;4444339;32;33523;-62